sensor_id;sensor_type;location;lat;lon;timestamp;P1;durP1;ratioP1;P2;durP2;ratioP2
52354;SDS011;38286;51.156;17.038;2023-04-29T00:02:02;15.00;;;8.05;;
52354;SDS011;38286;51.156;17.038;2023-04-29T00:04:28;12.40;;;7.78;;
52354;SDS011;38286;51.156;17.038;2023-04-29T00:06:54;13.85;;;7.95;;
52354;SDS011;38286;51.156;17.038;2023-04-29T00:09:20;13.45;;;7.28;;
52354;SDS011;38286;51.156;17.038;2023-04-29T00:11:46;11.65;;;7.07;;
52354;SDS011;38286;51.156;17.038;2023-04-29T00:14:12;12.75;;;7.28;;
52354;SDS011;38286;51.156;17.038;2023-04-29T00:16:38;11.23;;;7.15;;
52354;SDS011;38286;51.156;17.038;2023-04-29T00:19:05;12.75;;;8.30;;
52354;SDS011;38286;51.156;17.038;2023-04-29T00:21:31;14.40;;;7.53;;
52354;SDS011;38286;51.156;17.038;2023-04-29T00:23:57;11.18;;;7.32;;
52354;SDS011;38286;51.156;17.038;2023-04-29T00:26:24;16.65;;;7.57;;
52354;SDS011;38286;51.156;17.038;2023-04-29T00:28:50;12.82;;;7.35;;
52354;SDS011;38286;51.156;17.038;2023-04-29T00:31:16;11.45;;;7.53;;
52354;SDS011;38286;51.156;17.038;2023-04-29T00:33:42;13.25;;;7.32;;
52354;SDS011;38286;51.156;17.038;2023-04-29T00:36:08;13.48;;;7.88;;
52354;SDS011;38286;51.156;17.038;2023-04-29T00:38:34;12.38;;;7.13;;
52354;SDS011;38286;51.156;17.038;2023-04-29T00:41:00;12.43;;;7.28;;
52354;SDS011;38286;51.156;17.038;2023-04-29T00:43:26;12.20;;;7.72;;
52354;SDS011;38286;51.156;17.038;2023-04-29T00:45:52;12.23;;;7.20;;
52354;SDS011;38286;51.156;17.038;2023-04-29T00:48:18;14.25;;;8.13;;
52354;SDS011;38286;51.156;17.038;2023-04-29T00:50:44;13.60;;;8.13;;
52354;SDS011;38286;51.156;17.038;2023-04-29T00:53:10;16.38;;;8.50;;
52354;SDS011;38286;51.156;17.038;2023-04-29T00:55:40;15.32;;;8.57;;
52354;SDS011;38286;51.156;17.038;2023-04-29T00:58:06;15.18;;;8.63;;
52354;SDS011;38286;51.156;17.038;2023-04-29T01:00:34;14.27;;;8.70;;
52354;SDS011;38286;51.156;17.038;2023-04-29T01:03:01;15.95;;;9.60;;
52354;SDS011;38286;51.156;17.038;2023-04-29T01:05:28;16.67;;;10.00;;
52354;SDS011;38286;51.156;17.038;2023-04-29T01:11:08;16.60;;;8.70;;
52354;SDS011;38286;51.156;17.038;2023-04-29T01:13:43;14.48;;;9.02;;
52354;SDS011;38286;51.156;17.038;2023-04-29T01:16:16;19.88;;;9.88;;
52354;SDS011;38286;51.156;17.038;2023-04-29T01:21:33;17.10;;;9.73;;
52354;SDS011;38286;51.156;17.038;2023-04-29T01:24:13;19.00;;;10.13;;
52354;SDS011;38286;51.156;17.038;2023-04-29T01:26:48;19.00;;;9.98;;
52354;SDS011;38286;51.156;17.038;2023-04-29T01:30:24;17.85;;;10.27;;
52354;SDS011;38286;51.156;17.038;2023-04-29T01:32:17;16.40;;;9.52;;
52354;SDS011;38286;51.156;17.038;2023-04-29T01:34:58;16.38;;;9.82;;
52354;SDS011;38286;51.156;17.038;2023-04-29T01:37:51;20.98;;;10.00;;
52354;SDS011;38286;51.156;17.038;2023-04-29T01:40:25;17.73;;;10.25;;
52354;SDS011;38286;51.156;17.038;2023-04-29T01:43:01;16.20;;;10.15;;
52354;SDS011;38286;51.156;17.038;2023-04-29T01:45:29;18.98;;;10.32;;
52354;SDS011;38286;51.156;17.038;2023-04-29T01:47:57;18.17;;;10.43;;
52354;SDS011;38286;51.156;17.038;2023-04-29T01:50:23;18.95;;;10.35;;
52354;SDS011;38286;51.156;17.038;2023-04-29T01:52:49;17.27;;;9.75;;
52354;SDS011;38286;51.156;17.038;2023-04-29T01:55:15;17.65;;;10.55;;
52354;SDS011;38286;51.156;17.038;2023-04-29T01:57:41;18.13;;;10.23;;
52354;SDS011;38286;51.156;17.038;2023-04-29T02:00:09;18.63;;;10.82;;
52354;SDS011;38286;51.156;17.038;2023-04-29T02:02:36;19.23;;;10.65;;
52354;SDS011;38286;51.156;17.038;2023-04-29T02:05:02;18.08;;;9.80;;
52354;SDS011;38286;51.156;17.038;2023-04-29T02:07:28;18.55;;;10.45;;
52354;SDS011;38286;51.156;17.038;2023-04-29T02:09:54;18.35;;;10.10;;
52354;SDS011;38286;51.156;17.038;2023-04-29T02:12:20;16.40;;;9.65;;
52354;SDS011;38286;51.156;17.038;2023-04-29T02:14:46;16.90;;;10.13;;
52354;SDS011;38286;51.156;17.038;2023-04-29T02:17:12;19.55;;;10.07;;
52354;SDS011;38286;51.156;17.038;2023-04-29T02:19:39;15.25;;;9.68;;
52354;SDS011;38286;51.156;17.038;2023-04-29T02:22:04;15.88;;;10.35;;
52354;SDS011;38286;51.156;17.038;2023-04-29T02:24:31;17.38;;;10.07;;
52354;SDS011;38286;51.156;17.038;2023-04-29T02:29:42;17.38;;;9.43;;
52354;SDS011;38286;51.156;17.038;2023-04-29T02:32:08;19.67;;;10.95;;
52354;SDS011;38286;51.156;17.038;2023-04-29T02:34:34;17.40;;;9.70;;
52354;SDS011;38286;51.156;17.038;2023-04-29T02:37:00;16.90;;;9.98;;
52354;SDS011;38286;51.156;17.038;2023-04-29T02:39:26;17.63;;;9.90;;
52354;SDS011;38286;51.156;17.038;2023-04-29T02:41:55;15.38;;;9.13;;
52354;SDS011;38286;51.156;17.038;2023-04-29T02:44:21;15.85;;;9.25;;
52354;SDS011;38286;51.156;17.038;2023-04-29T02:46:47;18.63;;;9.57;;
52354;SDS011;38286;51.156;17.038;2023-04-29T02:49:13;17.33;;;9.45;;
52354;SDS011;38286;51.156;17.038;2023-04-29T02:51:39;18.38;;;10.05;;
52354;SDS011;38286;51.156;17.038;2023-04-29T02:54:06;20.83;;;9.90;;
52354;SDS011;38286;51.156;17.038;2023-04-29T02:56:31;15.40;;;9.90;;
52354;SDS011;38286;51.156;17.038;2023-04-29T02:58:58;19.35;;;9.77;;
52354;SDS011;38286;51.156;17.038;2023-04-29T03:01:23;17.13;;;9.75;;
52354;SDS011;38286;51.156;17.038;2023-04-29T03:03:50;19.20;;;9.32;;
52354;SDS011;38286;51.156;17.038;2023-04-29T03:06:15;21.00;;;10.13;;
52354;SDS011;38286;51.156;17.038;2023-04-29T03:08:41;16.58;;;9.45;;
52354;SDS011;38286;51.156;17.038;2023-04-29T03:11:07;16.52;;;9.10;;
52354;SDS011;38286;51.156;17.038;2023-04-29T03:13:33;14.70;;;9.05;;
52354;SDS011;38286;51.156;17.038;2023-04-29T03:15:59;15.35;;;8.70;;
52354;SDS011;38286;51.156;17.038;2023-04-29T03:18:26;15.20;;;9.45;;
52354;SDS011;38286;51.156;17.038;2023-04-29T03:20:52;15.30;;;8.70;;
52354;SDS011;38286;51.156;17.038;2023-04-29T03:23:18;16.77;;;9.15;;
52354;SDS011;38286;51.156;17.038;2023-04-29T03:25:44;18.17;;;9.38;;
52354;SDS011;38286;51.156;17.038;2023-04-29T03:28:10;15.55;;;9.35;;
52354;SDS011;38286;51.156;17.038;2023-04-29T03:30:36;11.90;;;8.35;;
52354;SDS011;38286;51.156;17.038;2023-04-29T03:33:02;11.40;;;8.38;;
52354;SDS011;38286;51.156;17.038;2023-04-29T03:35:28;17.77;;;9.48;;
52354;SDS011;38286;51.156;17.038;2023-04-29T03:37:54;15.02;;;8.73;;
52354;SDS011;38286;51.156;17.038;2023-04-29T03:40:20;15.05;;;9.25;;
52354;SDS011;38286;51.156;17.038;2023-04-29T03:42:46;13.50;;;9.15;;
52354;SDS011;38286;51.156;17.038;2023-04-29T03:45:12;18.35;;;9.40;;
52354;SDS011;38286;51.156;17.038;2023-04-29T03:47:39;15.95;;;9.45;;
52354;SDS011;38286;51.156;17.038;2023-04-29T03:50:05;13.90;;;8.95;;
52354;SDS011;38286;51.156;17.038;2023-04-29T03:52:34;15.00;;;8.63;;
52354;SDS011;38286;51.156;17.038;2023-04-29T03:55:03;14.80;;;9.75;;
52354;SDS011;38286;51.156;17.038;2023-04-29T03:57:29;14.35;;;9.32;;
52354;SDS011;38286;51.156;17.038;2023-04-29T03:59:55;15.07;;;9.25;;
52354;SDS011;38286;51.156;17.038;2023-04-29T04:02:21;13.18;;;8.63;;
52354;SDS011;38286;51.156;17.038;2023-04-29T04:04:47;14.68;;;8.75;;
52354;SDS011;38286;51.156;17.038;2023-04-29T04:07:13;17.90;;;9.60;;
52354;SDS011;38286;51.156;17.038;2023-04-29T04:09:39;15.45;;;8.48;;
52354;SDS011;38286;51.156;17.038;2023-04-29T04:12:05;15.18;;;9.07;;
52354;SDS011;38286;51.156;17.038;2023-04-29T04:14:31;14.02;;;8.80;;
52354;SDS011;38286;51.156;17.038;2023-04-29T04:16:57;16.08;;;8.63;;
52354;SDS011;38286;51.156;17.038;2023-04-29T04:19:23;15.63;;;8.68;;
52354;SDS011;38286;51.156;17.038;2023-04-29T04:21:50;14.20;;;8.55;;
52354;SDS011;38286;51.156;17.038;2023-04-29T04:24:15;18.92;;;9.05;;
52354;SDS011;38286;51.156;17.038;2023-04-29T04:26:42;14.80;;;8.57;;
52354;SDS011;38286;51.156;17.038;2023-04-29T04:29:07;18.27;;;8.75;;
52354;SDS011;38286;51.156;17.038;2023-04-29T04:31:33;15.70;;;9.13;;
52354;SDS011;38286;51.156;17.038;2023-04-29T04:34:01;13.85;;;8.52;;
52354;SDS011;38286;51.156;17.038;2023-04-29T04:36:27;12.80;;;8.82;;
52354;SDS011;38286;51.156;17.038;2023-04-29T04:38:53;16.33;;;9.05;;
52354;SDS011;38286;51.156;17.038;2023-04-29T04:41:19;14.73;;;8.45;;
52354;SDS011;38286;51.156;17.038;2023-04-29T04:43:44;13.18;;;8.43;;
52354;SDS011;38286;51.156;17.038;2023-04-29T04:46:11;11.43;;;8.25;;
52354;SDS011;38286;51.156;17.038;2023-04-29T04:48:37;15.27;;;8.60;;
52354;SDS011;38286;51.156;17.038;2023-04-29T04:51:07;15.20;;;8.80;;
52354;SDS011;38286;51.156;17.038;2023-04-29T04:53:34;12.65;;;8.40;;
52354;SDS011;38286;51.156;17.038;2023-04-29T04:56:00;16.02;;;8.75;;
52354;SDS011;38286;51.156;17.038;2023-04-29T04:58:26;15.75;;;9.18;;
52354;SDS011;38286;51.156;17.038;2023-04-29T05:00:53;13.10;;;8.90;;
52354;SDS011;38286;51.156;17.038;2023-04-29T05:03:18;13.60;;;8.30;;
52354;SDS011;38286;51.156;17.038;2023-04-29T05:05:44;14.15;;;8.65;;
52354;SDS011;38286;51.156;17.038;2023-04-29T05:08:10;11.75;;;8.40;;
52354;SDS011;38286;51.156;17.038;2023-04-29T05:10:36;16.10;;;8.15;;
52354;SDS011;38286;51.156;17.038;2023-04-29T05:13:02;13.73;;;7.95;;
52354;SDS011;38286;51.156;17.038;2023-04-29T05:15:28;12.32;;;8.43;;
52354;SDS011;38286;51.156;17.038;2023-04-29T05:17:54;13.63;;;8.45;;
52354;SDS011;38286;51.156;17.038;2023-04-29T05:20:20;13.18;;;7.75;;
52354;SDS011;38286;51.156;17.038;2023-04-29T05:22:46;16.67;;;8.93;;
52354;SDS011;38286;51.156;17.038;2023-04-29T05:25:12;13.63;;;7.65;;
52354;SDS011;38286;51.156;17.038;2023-04-29T05:27:38;15.98;;;8.32;;
52354;SDS011;38286;51.156;17.038;2023-04-29T05:30:05;14.63;;;8.32;;
52354;SDS011;38286;51.156;17.038;2023-04-29T05:32:31;13.90;;;8.45;;
52354;SDS011;38286;51.156;17.038;2023-04-29T05:34:58;14.43;;;8.18;;
52354;SDS011;38286;51.156;17.038;2023-04-29T05:37:23;12.52;;;7.40;;
52354;SDS011;38286;51.156;17.038;2023-04-29T05:39:55;15.32;;;8.63;;
52354;SDS011;38286;51.156;17.038;2023-04-29T05:42:21;13.88;;;7.57;;
52354;SDS011;38286;51.156;17.038;2023-04-29T05:44:48;14.60;;;8.38;;
52354;SDS011;38286;51.156;17.038;2023-04-29T05:47:14;11.95;;;7.78;;
52354;SDS011;38286;51.156;17.038;2023-04-29T05:49:41;14.82;;;8.10;;
52354;SDS011;38286;51.156;17.038;2023-04-29T05:52:07;10.38;;;8.13;;
52354;SDS011;38286;51.156;17.038;2023-04-29T05:54:33;11.27;;;7.85;;
52354;SDS011;38286;51.156;17.038;2023-04-29T05:56:59;13.93;;;8.25;;
52354;SDS011;38286;51.156;17.038;2023-04-29T05:59:30;13.80;;;7.38;;
52354;SDS011;38286;51.156;17.038;2023-04-29T06:01:57;12.85;;;7.78;;
52354;SDS011;38286;51.156;17.038;2023-04-29T06:04:24;11.52;;;7.57;;
52354;SDS011;38286;51.156;17.038;2023-04-29T06:06:50;13.48;;;8.20;;
52354;SDS011;38286;51.156;17.038;2023-04-29T06:09:18;11.38;;;7.88;;
52354;SDS011;38286;51.156;17.038;2023-04-29T06:11:45;10.80;;;7.50;;
52354;SDS011;38286;51.156;17.038;2023-04-29T06:14:11;11.20;;;8.25;;
52354;SDS011;38286;51.156;17.038;2023-04-29T06:16:38;14.95;;;7.90;;
52354;SDS011;38286;51.156;17.038;2023-04-29T06:19:04;14.07;;;8.15;;
52354;SDS011;38286;51.156;17.038;2023-04-29T06:21:30;13.20;;;8.45;;
52354;SDS011;38286;51.156;17.038;2023-04-29T06:23:56;13.85;;;8.40;;
52354;SDS011;38286;51.156;17.038;2023-04-29T06:26:23;13.48;;;9.27;;
52354;SDS011;38286;51.156;17.038;2023-04-29T06:28:49;16.02;;;8.13;;
52354;SDS011;38286;51.156;17.038;2023-04-29T06:31:15;14.75;;;8.55;;
52354;SDS011;38286;51.156;17.038;2023-04-29T06:33:41;15.63;;;8.10;;
52354;SDS011;38286;51.156;17.038;2023-04-29T06:36:07;13.50;;;8.15;;
52354;SDS011;38286;51.156;17.038;2023-04-29T06:38:33;11.45;;;8.35;;
52354;SDS011;38286;51.156;17.038;2023-04-29T06:40:59;15.02;;;8.25;;
52354;SDS011;38286;51.156;17.038;2023-04-29T06:43:26;11.55;;;8.27;;
52354;SDS011;38286;51.156;17.038;2023-04-29T06:45:52;13.52;;;8.05;;
52354;SDS011;38286;51.156;17.038;2023-04-29T06:48:18;11.30;;;8.35;;
52354;SDS011;38286;51.156;17.038;2023-04-29T06:50:50;16.85;;;9.15;;
52354;SDS011;38286;51.156;17.038;2023-04-29T06:53:20;13.88;;;8.38;;
52354;SDS011;38286;51.156;17.038;2023-04-29T06:55:46;15.45;;;8.82;;
52354;SDS011;38286;51.156;17.038;2023-04-29T06:58:13;16.48;;;9.25;;
52354;SDS011;38286;51.156;17.038;2023-04-29T07:00:42;15.20;;;9.15;;
52354;SDS011;38286;51.156;17.038;2023-04-29T07:03:09;15.93;;;8.68;;
52354;SDS011;38286;51.156;17.038;2023-04-29T07:05:35;15.50;;;9.65;;
52354;SDS011;38286;51.156;17.038;2023-04-29T07:08:04;14.85;;;9.07;;
52354;SDS011;38286;51.156;17.038;2023-04-29T07:10:30;14.30;;;9.52;;
52354;SDS011;38286;51.156;17.038;2023-04-29T07:12:56;13.88;;;9.73;;
52354;SDS011;38286;51.156;17.038;2023-04-29T07:15:22;17.40;;;9.93;;
52354;SDS011;38286;51.156;17.038;2023-04-29T07:17:48;16.73;;;9.60;;
52354;SDS011;38286;51.156;17.038;2023-04-29T07:20:14;15.98;;;10.32;;
52354;SDS011;38286;51.156;17.038;2023-04-29T07:22:40;16.13;;;10.57;;
52354;SDS011;38286;51.156;17.038;2023-04-29T07:25:06;20.48;;;11.15;;
52354;SDS011;38286;51.156;17.038;2023-04-29T07:27:33;17.63;;;11.13;;
52354;SDS011;38286;51.156;17.038;2023-04-29T07:29:59;17.85;;;12.02;;
52354;SDS011;38286;51.156;17.038;2023-04-29T07:32:26;16.73;;;12.00;;
52354;SDS011;38286;51.156;17.038;2023-04-29T07:34:52;18.27;;;12.23;;
52354;SDS011;38286;51.156;17.038;2023-04-29T07:37:18;18.73;;;12.32;;
52354;SDS011;38286;51.156;17.038;2023-04-29T07:39:44;19.10;;;12.27;;
52354;SDS011;38286;51.156;17.038;2023-04-29T07:42:10;19.02;;;12.68;;
52354;SDS011;38286;51.156;17.038;2023-04-29T07:44:36;19.20;;;12.70;;
52354;SDS011;38286;51.156;17.038;2023-04-29T07:47:03;22.52;;;12.95;;
52354;SDS011;38286;51.156;17.038;2023-04-29T07:49:29;20.00;;;13.38;;
52354;SDS011;38286;51.156;17.038;2023-04-29T07:51:55;23.50;;;14.35;;
52354;SDS011;38286;51.156;17.038;2023-04-29T07:54:20;22.20;;;14.15;;
52354;SDS011;38286;51.156;17.038;2023-04-29T07:56:47;20.52;;;13.82;;
52354;SDS011;38286;51.156;17.038;2023-04-29T07:59:13;22.05;;;14.25;;
52354;SDS011;38286;51.156;17.038;2023-04-29T08:01:39;21.50;;;13.57;;
52354;SDS011;38286;51.156;17.038;2023-04-29T08:04:06;20.35;;;13.60;;
52354;SDS011;38286;51.156;17.038;2023-04-29T08:06:32;21.30;;;13.90;;
52354;SDS011;38286;51.156;17.038;2023-04-29T08:08:59;22.55;;;14.23;;
52354;SDS011;38286;51.156;17.038;2023-04-29T08:11:26;25.73;;;15.10;;
52354;SDS011;38286;51.156;17.038;2023-04-29T08:13:52;24.20;;;14.70;;
52354;SDS011;38286;51.156;17.038;2023-04-29T08:16:19;24.50;;;13.73;;
52354;SDS011;38286;51.156;17.038;2023-04-29T08:18:46;24.88;;;14.93;;
52354;SDS011;38286;51.156;17.038;2023-04-29T08:21:12;24.40;;;15.25;;
52354;SDS011;38286;51.156;17.038;2023-04-29T08:23:38;22.77;;;14.15;;
52354;SDS011;38286;51.156;17.038;2023-04-29T08:26:04;21.77;;;14.82;;
52354;SDS011;38286;51.156;17.038;2023-04-29T08:28:30;27.55;;;15.43;;
52354;SDS011;38286;51.156;17.038;2023-04-29T08:30:57;24.48;;;15.98;;
52354;SDS011;38286;51.156;17.038;2023-04-29T08:33:22;25.73;;;15.15;;
52354;SDS011;38286;51.156;17.038;2023-04-29T08:35:48;28.45;;;16.13;;
52354;SDS011;38286;51.156;17.038;2023-04-29T08:38:22;30.90;;;16.77;;
52354;SDS011;38286;51.156;17.038;2023-04-29T08:40:49;27.58;;;16.40;;
52354;SDS011;38286;51.156;17.038;2023-04-29T08:43:15;32.90;;;19.02;;
52354;SDS011;38286;51.156;17.038;2023-04-29T08:45:41;30.80;;;17.88;;
52354;SDS011;38286;51.156;17.038;2023-04-29T08:48:08;34.58;;;18.95;;
52354;SDS011;38286;51.156;17.038;2023-04-29T08:50:38;30.05;;;17.48;;
52354;SDS011;38286;51.156;17.038;2023-04-29T08:53:06;27.35;;;17.10;;
52354;SDS011;38286;51.156;17.038;2023-04-29T08:55:36;26.55;;;16.20;;
52354;SDS011;38286;51.156;17.038;2023-04-29T08:58:07;27.33;;;16.98;;
52354;SDS011;38286;51.156;17.038;2023-04-29T09:00:33;24.13;;;14.93;;
52354;SDS011;38286;51.156;17.038;2023-04-29T09:03:10;22.15;;;14.23;;
52354;SDS011;38286;51.156;17.038;2023-04-29T09:05:39;21.27;;;13.50;;
52354;SDS011;38286;51.156;17.038;2023-04-29T09:08:07;24.60;;;14.40;;
52354;SDS011;38286;51.156;17.038;2023-04-29T09:10:35;23.13;;;14.73;;
52354;SDS011;38286;51.156;17.038;2023-04-29T09:13:02;23.50;;;15.13;;
52354;SDS011;38286;51.156;17.038;2023-04-29T09:15:27;25.13;;;15.88;;
52354;SDS011;38286;51.156;17.038;2023-04-29T09:17:53;19.70;;;14.05;;
52354;SDS011;38286;51.156;17.038;2023-04-29T09:22:49;23.92;;;14.77;;
52354;SDS011;38286;51.156;17.038;2023-04-29T09:25:16;22.48;;;14.27;;
52354;SDS011;38286;51.156;17.038;2023-04-29T09:27:42;20.52;;;14.02;;
52354;SDS011;38286;51.156;17.038;2023-04-29T09:30:08;20.67;;;12.95;;
52354;SDS011;38286;51.156;17.038;2023-04-29T09:32:38;18.15;;;12.32;;
52354;SDS011;38286;51.156;17.038;2023-04-29T09:35:23;17.38;;;11.80;;
52354;SDS011;38286;51.156;17.038;2023-04-29T09:37:50;16.20;;;11.10;;
52354;SDS011;38286;51.156;17.038;2023-04-29T09:40:31;15.27;;;10.85;;
52354;SDS011;38286;51.156;17.038;2023-04-29T09:42:58;14.02;;;8.82;;
52354;SDS011;38286;51.156;17.038;2023-04-29T09:45:37;13.63;;;10.35;;
52354;SDS011;38286;51.156;17.038;2023-04-29T09:48:07;15.23;;;9.55;;
52354;SDS011;38286;51.156;17.038;2023-04-29T09:50:34;15.02;;;10.10;;
52354;SDS011;38286;51.156;17.038;2023-04-29T09:53:04;15.48;;;9.18;;
52354;SDS011;38286;51.156;17.038;2023-04-29T09:55:35;15.38;;;9.57;;
52354;SDS011;38286;51.156;17.038;2023-04-29T09:58:02;15.00;;;9.25;;
52354;SDS011;38286;51.156;17.038;2023-04-29T10:00:29;13.43;;;9.05;;
52354;SDS011;38286;51.156;17.038;2023-04-29T10:02:58;10.60;;;7.65;;
52354;SDS011;38286;51.156;17.038;2023-04-29T10:05:28;9.70;;;7.30;;
52354;SDS011;38286;51.156;17.038;2023-04-29T10:07:58;11.05;;;7.65;;
52354;SDS011;38286;51.156;17.038;2023-04-29T10:10:24;7.05;;;5.25;;
52354;SDS011;38286;51.156;17.038;2023-04-29T10:12:53;8.20;;;6.07;;
52354;SDS011;38286;51.156;17.038;2023-04-29T10:15:22;7.28;;;5.13;;
52354;SDS011;38286;51.156;17.038;2023-04-29T10:17:54;7.93;;;5.50;;
52354;SDS011;38286;51.156;17.038;2023-04-29T10:20:24;7.47;;;6.05;;
52354;SDS011;38286;51.156;17.038;2023-04-29T10:22:51;8.23;;;6.45;;
52354;SDS011;38286;51.156;17.038;2023-04-29T10:25:21;9.27;;;5.80;;
52354;SDS011;38286;51.156;17.038;2023-04-29T10:27:50;7.40;;;6.00;;
52354;SDS011;38286;51.156;17.038;2023-04-29T10:30:19;7.38;;;5.78;;
52354;SDS011;38286;51.156;17.038;2023-04-29T10:32:46;8.10;;;5.57;;
52354;SDS011;38286;51.156;17.038;2023-04-29T10:35:14;9.15;;;5.78;;
52354;SDS011;38286;51.156;17.038;2023-04-29T10:37:41;9.45;;;6.07;;
52354;SDS011;38286;51.156;17.038;2023-04-29T10:40:14;9.52;;;6.30;;
52354;SDS011;38286;51.156;17.038;2023-04-29T10:42:49;5.93;;;4.80;;
52354;SDS011;38286;51.156;17.038;2023-04-29T10:50:27;5.82;;;4.28;;
52354;SDS011;38286;51.156;17.038;2023-04-29T10:52:54;7.75;;;5.13;;
52354;SDS011;38286;51.156;17.038;2023-04-29T10:55:21;6.28;;;4.40;;
52354;SDS011;38286;51.156;17.038;2023-04-29T10:57:48;5.90;;;4.30;;
52354;SDS011;38286;51.156;17.038;2023-04-29T11:00:20;6.50;;;3.95;;
52354;SDS011;38286;51.156;17.038;2023-04-29T11:02:48;4.68;;;3.10;;
52354;SDS011;38286;51.156;17.038;2023-04-29T11:05:13;3.95;;;2.97;;
52354;SDS011;38286;51.156;17.038;2023-04-29T11:07:42;3.75;;;2.65;;
52354;SDS011;38286;51.156;17.038;2023-04-29T11:10:11;2.92;;;2.58;;
52354;SDS011;38286;51.156;17.038;2023-04-29T11:12:37;5.57;;;2.40;;
52354;SDS011;38286;51.156;17.038;2023-04-29T11:15:03;4.47;;;3.05;;
52354;SDS011;38286;51.156;17.038;2023-04-29T11:17:35;3.10;;;2.40;;
52354;SDS011;38286;51.156;17.038;2023-04-29T11:20:02;5.60;;;2.65;;
52354;SDS011;38286;51.156;17.038;2023-04-29T11:22:29;4.30;;;2.20;;
52354;SDS011;38286;51.156;17.038;2023-04-29T11:24:57;3.03;;;2.50;;
52354;SDS011;38286;51.156;17.038;2023-04-29T11:27:29;2.78;;;2.30;;
52354;SDS011;38286;51.156;17.038;2023-04-29T11:29:59;3.65;;;2.33;;
52354;SDS011;38286;51.156;17.038;2023-04-29T11:32:26;3.72;;;2.45;;
52354;SDS011;38286;51.156;17.038;2023-04-29T11:34:54;3.33;;;2.22;;
52354;SDS011;38286;51.156;17.038;2023-04-29T11:37:23;2.97;;;2.50;;
52354;SDS011;38286;51.156;17.038;2023-04-29T11:39:56;2.60;;;2.40;;
52354;SDS011;38286;51.156;17.038;2023-04-29T11:42:24;2.58;;;2.38;;
52354;SDS011;38286;51.156;17.038;2023-04-29T11:44:50;3.53;;;2.25;;
52354;SDS011;38286;51.156;17.038;2023-04-29T11:47:17;3.00;;;2.40;;
52354;SDS011;38286;51.156;17.038;2023-04-29T11:49:43;2.60;;;2.30;;
52354;SDS011;38286;51.156;17.038;2023-04-29T11:52:09;2.55;;;1.92;;
52354;SDS011;38286;51.156;17.038;2023-04-29T11:54:36;3.05;;;2.33;;
52354;SDS011;38286;51.156;17.038;2023-04-29T11:57:02;3.10;;;2.30;;
52354;SDS011;38286;51.156;17.038;2023-04-29T11:59:32;2.78;;;2.10;;
52354;SDS011;38286;51.156;17.038;2023-04-29T12:01:58;2.00;;;1.80;;
52354;SDS011;38286;51.156;17.038;2023-04-29T12:04:25;2.10;;;1.70;;
52354;SDS011;38286;51.156;17.038;2023-04-29T12:06:51;2.70;;;2.50;;
52354;SDS011;38286;51.156;17.038;2023-04-29T12:09:20;4.10;;;2.75;;
52354;SDS011;38286;51.156;17.038;2023-04-29T12:11:47;4.25;;;3.03;;
52354;SDS011;38286;51.156;17.038;2023-04-29T12:14:14;3.40;;;2.60;;
52354;SDS011;38286;51.156;17.038;2023-04-29T12:16:41;3.88;;;2.75;;
52354;SDS011;38286;51.156;17.038;2023-04-29T12:19:07;3.33;;;2.40;;
52354;SDS011;38286;51.156;17.038;2023-04-29T12:21:34;3.80;;;2.92;;
52354;SDS011;38286;51.156;17.038;2023-04-29T12:24:01;4.95;;;3.33;;
52354;SDS011;38286;51.156;17.038;2023-04-29T12:26:28;4.55;;;3.60;;
52354;SDS011;38286;51.156;17.038;2023-04-29T12:28:56;4.38;;;3.58;;
52354;SDS011;38286;51.156;17.038;2023-04-29T12:31:23;5.18;;;3.92;;
52354;SDS011;38286;51.156;17.038;2023-04-29T12:36:43;4.90;;;4.25;;
52354;SDS011;38286;51.156;17.038;2023-04-29T12:39:09;6.15;;;4.90;;
52354;SDS011;38286;51.156;17.038;2023-04-29T12:41:36;6.60;;;5.25;;
52354;SDS011;38286;51.156;17.038;2023-04-29T12:44:05;7.05;;;5.50;;
52354;SDS011;38286;51.156;17.038;2023-04-29T12:46:35;4.75;;;4.05;;
52354;SDS011;38286;51.156;17.038;2023-04-29T12:49:03;3.47;;;3.00;;
52354;SDS011;38286;51.156;17.038;2023-04-29T12:51:31;4.40;;;4.00;;
52354;SDS011;38286;51.156;17.038;2023-04-29T12:54:01;5.82;;;5.00;;
52354;SDS011;38286;51.156;17.038;2023-04-29T12:56:32;6.53;;;4.60;;
52354;SDS011;38286;51.156;17.038;2023-04-29T12:59:08;4.97;;;4.13;;
52354;SDS011;38286;51.156;17.038;2023-04-29T13:01:34;6.32;;;4.50;;
52354;SDS011;38286;51.156;17.038;2023-04-29T13:04:01;5.35;;;4.40;;
52354;SDS011;38286;51.156;17.038;2023-04-29T13:06:29;4.78;;;4.10;;
52354;SDS011;38286;51.156;17.038;2023-04-29T13:08:56;4.60;;;3.30;;
52354;SDS011;38286;51.156;17.038;2023-04-29T13:11:22;3.30;;;3.00;;
52354;SDS011;38286;51.156;17.038;2023-04-29T13:13:48;3.60;;;3.20;;
52354;SDS011;38286;51.156;17.038;2023-04-29T13:16:14;5.80;;;3.78;;
52354;SDS011;38286;51.156;17.038;2023-04-29T13:18:41;3.60;;;3.10;;
52354;SDS011;38286;51.156;17.038;2023-04-29T13:21:07;4.55;;;3.17;;
52354;SDS011;38286;51.156;17.038;2023-04-29T13:23:33;2.90;;;2.60;;
52354;SDS011;38286;51.156;17.038;2023-04-29T13:25:59;2.78;;;2.30;;
52354;SDS011;38286;51.156;17.038;2023-04-29T13:28:25;2.33;;;2.10;;
52354;SDS011;38286;51.156;17.038;2023-04-29T13:30:51;2.03;;;1.83;;
52354;SDS011;38286;51.156;17.038;2023-04-29T13:33:17;2.13;;;1.80;;
52354;SDS011;38286;51.156;17.038;2023-04-29T13:35:43;1.67;;;1.58;;
52354;SDS011;38286;51.156;17.038;2023-04-29T13:38:10;1.65;;;1.50;;
52354;SDS011;38286;51.156;17.038;2023-04-29T13:40:36;1.50;;;1.33;;
52354;SDS011;38286;51.156;17.038;2023-04-29T13:43:02;1.65;;;1.55;;
52354;SDS011;38286;51.156;17.038;2023-04-29T13:45:28;2.10;;;1.67;;
52354;SDS011;38286;51.156;17.038;2023-04-29T13:47:54;2.25;;;1.83;;
52354;SDS011;38286;51.156;17.038;2023-04-29T13:50:20;2.00;;;1.80;;
52354;SDS011;38286;51.156;17.038;2023-04-29T13:52:46;2.42;;;2.20;;
52354;SDS011;38286;51.156;17.038;2023-04-29T13:55:12;2.05;;;1.83;;
52354;SDS011;38286;51.156;17.038;2023-04-29T13:57:38;2.83;;;2.30;;
52354;SDS011;38286;51.156;17.038;2023-04-29T14:00:04;2.40;;;1.85;;
52354;SDS011;38286;51.156;17.038;2023-04-29T14:02:32;2.53;;;1.90;;
52354;SDS011;38286;51.156;17.038;2023-04-29T14:04:58;3.70;;;2.13;;
52354;SDS011;38286;51.156;17.038;2023-04-29T14:07:24;2.35;;;2.10;;
52354;SDS011;38286;51.156;17.038;2023-04-29T14:09:50;2.17;;;1.98;;
52354;SDS011;38286;51.156;17.038;2023-04-29T14:12:16;3.00;;;2.50;;
52354;SDS011;38286;51.156;17.038;2023-04-29T14:14:42;2.38;;;2.17;;
52354;SDS011;38286;51.156;17.038;2023-04-29T14:17:08;3.15;;;2.35;;
52354;SDS011;38286;51.156;17.038;2023-04-29T14:19:34;3.28;;;2.67;;
52354;SDS011;38286;51.156;17.038;2023-04-29T14:22:00;3.67;;;2.30;;
52354;SDS011;38286;51.156;17.038;2023-04-29T14:24:26;4.05;;;2.80;;
52354;SDS011;38286;51.156;17.038;2023-04-29T14:26:52;2.47;;;2.28;;
52354;SDS011;38286;51.156;17.038;2023-04-29T14:29:18;3.00;;;2.47;;
52354;SDS011;38286;51.156;17.038;2023-04-29T14:31:44;3.15;;;2.60;;
52354;SDS011;38286;51.156;17.038;2023-04-29T14:34:10;3.00;;;2.40;;
52354;SDS011;38286;51.156;17.038;2023-04-29T14:36:36;2.70;;;2.50;;
52354;SDS011;38286;51.156;17.038;2023-04-29T14:39:02;3.33;;;2.60;;
52354;SDS011;38286;51.156;17.038;2023-04-29T14:41:28;3.20;;;2.90;;
52354;SDS011;38286;51.156;17.038;2023-04-29T14:43:54;5.28;;;3.10;;